createdAt,value
2023-02-11T00:00:21.108Z,7.40
2023-02-11T00:02:48.220Z,7.40
2023-02-11T00:05:15.808Z,7.40
2023-02-11T00:07:42.635Z,7.40
2023-02-11T00:10:09.903Z,7.40
2023-02-11T00:12:37.243Z,7.40
2023-02-11T00:15:05.290Z,7.50
2023-02-11T00:17:32.801Z,7.50
2023-02-11T00:19:59.667Z,7.50
2023-02-11T00:22:26.645Z,7.40
2023-02-11T00:24:54.175Z,7.40
2023-02-11T00:27:20.913Z,7.40
2023-02-11T00:29:47.702Z,7.40
2023-02-11T00:32:14.591Z,7.40
2023-02-11T00:34:41.532Z,7.40
2023-02-11T00:37:08.553Z,7.40
2023-02-11T00:39:35.313Z,7.40
2023-02-11T00:42:03.623Z,7.40
2023-02-11T00:44:30.435Z,7.40
2023-02-11T00:46:57.520Z,7.40
2023-02-11T00:49:25.285Z,7.40
2023-02-11T00:51:52.172Z,7.40
2023-02-11T00:54:20.143Z,7.40
2023-02-11T00:56:47.041Z,7.40
2023-02-11T00:59:13.776Z,7.40
2023-02-11T01:01:44.422Z,7.40
2023-02-11T01:04:11.305Z,7.40
2023-02-11T01:06:38.084Z,7.40
2023-02-11T01:09:05.735Z,7.40
2023-02-11T01:11:35.615Z,7.40
2023-02-11T01:14:02.907Z,7.40
2023-02-11T01:16:29.816Z,7.40
2023-02-11T01:18:56.723Z,7.40
2023-02-11T01:21:23.515Z,7.40
2023-02-11T01:23:51.299Z,7.30
2023-02-11T01:26:18.522Z,7.40
2023-02-11T01:28:45.436Z,7.30
2023-02-11T01:31:12.441Z,7.30
2023-02-11T01:33:39.540Z,7.30
2023-02-11T01:36:07.422Z,7.30
2023-02-11T01:38:35.572Z,7.30
2023-02-11T01:41:05.609Z,7.30
2023-02-11T01:43:35.444Z,7.30
2023-02-11T01:46:32.316Z,7.30
2023-02-11T01:49:22.936Z,7.30
2023-02-11T01:52:07.159Z,7.30
2023-02-11T01:54:56.244Z,7.30
2023-02-11T01:57:26.456Z,7.30
2023-02-11T02:00:08.540Z,7.30
2023-02-11T02:02:58.150Z,7.30
2023-02-11T02:05:53.149Z,7.20
2023-02-11T02:08:37.301Z,7.20
2023-02-11T02:11:04.946Z,7.20
2023-02-11T02:13:34.175Z,7.20
2023-02-11T02:16:04.352Z,7.10
2023-02-11T02:18:46.126Z,7.10
2023-02-11T02:21:51.043Z,7.10
2023-02-11T02:24:51.730Z,7.10
2023-02-11T02:27:21.448Z,7.00
2023-02-11T02:30:14.442Z,7.00
2023-02-11T02:36:30.805Z,6.90
2023-02-11T02:39:13.158Z,6.90
2023-02-11T02:41:41.703Z,6.90
2023-02-11T02:44:11.666Z,6.90
2023-02-11T02:46:38.606Z,6.80
2023-02-11T02:49:12.537Z,6.80
2023-02-11T02:51:39.673Z,6.80
2023-02-11T02:57:39.954Z,6.70
2023-02-11T03:00:09.676Z,6.60
2023-02-11T03:02:42.409Z,6.60
2023-02-11T03:05:22.988Z,6.50
2023-02-11T03:08:01.598Z,6.50
2023-02-11T03:10:40.357Z,6.50
2023-02-11T03:13:08.060Z,6.40
2023-02-11T03:15:40.625Z,6.40
2023-02-11T03:18:11.568Z,6.40
2023-02-11T03:20:41.810Z,6.30
2023-02-11T03:23:42.321Z,6.30
2023-02-11T03:26:18.341Z,6.30
2023-02-11T03:28:45.446Z,6.20
2023-02-11T03:31:26.690Z,6.20
2023-02-11T03:34:06.682Z,6.20
2023-02-11T03:36:45.950Z,6.20
2023-02-11T03:39:16.718Z,6.10
2023-02-11T03:41:46.149Z,6.10
2023-02-11T03:44:15.893Z,6.10
2023-02-11T03:46:49.248Z,6.10
2023-02-11T03:49:20.266Z,6.10
2023-02-11T03:51:50.946Z,6.10
2023-02-11T03:54:23.180Z,6.10
2023-02-11T03:56:54.581Z,6.00
2023-02-11T03:59:21.810Z,6.00
2023-02-11T04:01:48.826Z,6.00
2023-02-11T04:04:16.279Z,6.00
2023-02-11T04:06:43.443Z,6.00
2023-02-11T04:09:11.539Z,6.00
2023-02-11T04:11:38.552Z,5.90
2023-02-11T04:14:05.363Z,5.90
2023-02-11T04:16:32.364Z,5.90
2023-02-11T04:18:59.239Z,5.90
2023-02-11T04:21:26.010Z,5.90
2023-02-11T04:23:52.851Z,5.90
2023-02-11T04:26:19.685Z,5.90
2023-02-11T04:28:46.539Z,5.90
2023-02-11T04:31:13.432Z,5.90
2023-02-11T04:33:40.307Z,5.90
2023-02-11T04:36:07.568Z,5.90
2023-02-11T04:38:34.324Z,5.90
2023-02-11T04:41:01.157Z,5.90
2023-02-11T04:43:28.036Z,5.90
2023-02-11T04:45:58.754Z,5.90
2023-02-11T04:48:26.072Z,6.00
2023-02-11T04:50:52.925Z,6.00
2023-02-11T04:53:20.011Z,6.00
2023-02-11T04:55:50.473Z,6.00
2023-02-11T04:58:18.863Z,6.10
2023-02-11T05:00:46.516Z,6.10
2023-02-11T05:03:16.059Z,6.10
2023-02-11T05:05:43.274Z,6.10
2023-02-11T05:08:11.149Z,6.10
2023-02-11T05:10:38.368Z,6.20
2023-02-11T05:13:05.352Z,6.20
2023-02-11T05:15:32.243Z,6.20
2023-02-11T05:17:59.008Z,6.20
2023-02-11T05:20:25.880Z,6.20
2023-02-11T05:22:52.773Z,6.20
2023-02-11T05:25:20.625Z,6.30
2023-02-11T05:27:47.493Z,6.20
2023-02-11T05:30:14.750Z,6.20
2023-02-11T05:32:41.764Z,6.20
2023-02-11T05:35:09.495Z,6.20
2023-02-11T05:37:36.478Z,6.30
2023-02-11T05:40:03.643Z,6.30
2023-02-11T05:42:30.429Z,6.30
2023-02-11T05:44:57.697Z,6.40
2023-02-11T05:47:24.798Z,6.40
2023-02-11T05:49:53.441Z,6.40
2023-02-11T05:52:21.591Z,6.40
2023-02-11T05:54:48.546Z,6.50
2023-02-11T05:57:16.447Z,6.50
2023-02-11T05:59:43.576Z,6.50
2023-02-11T06:02:10.542Z,6.50
2023-02-11T06:04:38.203Z,6.60
2023-02-11T06:07:05.466Z,6.60
2023-02-11T06:09:32.320Z,6.60
2023-02-11T06:11:59.197Z,6.60
2023-02-11T06:14:25.953Z,6.70
2023-02-11T06:16:52.705Z,6.70
2023-02-11T06:19:19.455Z,6.70
2023-02-11T06:21:46.214Z,6.70
2023-02-11T06:24:13.072Z,6.70
2023-02-11T06:26:39.883Z,6.80
2023-02-11T06:29:06.754Z,6.80
2023-02-11T06:31:33.618Z,6.80
2023-02-11T06:34:01.280Z,6.80
2023-02-11T06:36:28.071Z,6.80
2023-02-11T06:38:55.576Z,6.90
2023-02-11T06:41:23.110Z,6.90
2023-02-11T06:43:50.130Z,6.90
2023-02-11T06:46:16.989Z,6.90
2023-02-11T06:48:44.959Z,6.90
2023-02-11T06:51:13.354Z,7.00
2023-02-11T06:53:46.555Z,6.90
2023-02-11T06:56:17.052Z,7.00
2023-02-11T06:58:43.977Z,7.00
2023-02-11T07:01:14.363Z,7.00
2023-02-11T07:03:43.752Z,7.00
2023-02-11T07:06:14.709Z,7.00
2023-02-11T07:08:43.038Z,7.10
2023-02-11T07:11:18.122Z,7.00
2023-02-11T07:13:45.078Z,7.10
2023-02-11T07:16:15.263Z,7.10
2023-02-11T07:18:42.491Z,7.10
2023-02-11T07:21:11.470Z,7.10
2023-02-11T07:23:39.549Z,7.10
2023-02-11T07:26:09.240Z,7.10
2023-02-11T07:28:37.878Z,7.10
2023-02-11T07:31:12.205Z,7.10
2023-02-11T07:33:39.271Z,7.10
2023-02-11T07:36:07.844Z,7.10
2023-02-11T07:38:35.888Z,7.10
2023-02-11T07:41:08.397Z,7.10
2023-02-11T07:43:36.237Z,7.10
2023-02-11T07:46:07.837Z,7.10
2023-02-11T07:48:34.946Z,7.10
2023-02-11T07:51:17.150Z,7.20
2023-02-11T07:53:44.583Z,7.20
2023-02-11T07:56:12.609Z,7.20
2023-02-11T07:58:42.090Z,7.20
2023-02-11T08:01:12.594Z,7.20
2023-02-11T08:03:41.310Z,7.20
2023-02-11T08:06:10.443Z,7.20
2023-02-11T08:08:37.302Z,7.20
2023-02-11T08:11:13.795Z,7.20
2023-02-11T08:13:41.151Z,7.20
2023-02-11T08:16:09.165Z,7.20
2023-02-11T08:18:36.658Z,7.20
2023-02-11T08:21:08.674Z,7.20
2023-02-11T08:23:40.311Z,7.30
2023-02-11T08:26:10.572Z,7.30
2023-02-11T08:28:40.167Z,7.30
2023-02-11T08:31:11.841Z,7.30
2023-02-11T08:33:41.038Z,7.30
2023-02-11T08:36:20.043Z,7.40
2023-02-11T08:38:47.278Z,7.40
2023-02-11T08:41:14.983Z,7.40
2023-02-11T08:43:43.642Z,7.50
2023-02-11T08:46:14.599Z,7.50
2023-02-11T08:48:41.648Z,7.50
2023-02-11T08:51:33.034Z,7.50
2023-02-11T08:54:00.743Z,7.60
2023-02-11T08:56:28.173Z,7.60
2023-02-11T08:58:55.373Z,7.60
2023-02-11T09:01:29.319Z,7.60
2023-02-11T09:03:57.386Z,7.70
2023-02-11T09:06:25.240Z,7.70
2023-02-11T09:08:54.744Z,7.70
2023-02-11T09:11:25.930Z,7.80
2023-02-11T09:13:54.490Z,7.80
2023-02-11T09:16:27.435Z,7.80
2023-02-11T09:18:56.588Z,7.90
2023-02-11T09:21:23.458Z,7.90
2023-02-11T09:23:50.462Z,7.90
2023-02-11T09:26:19.766Z,8.00
2023-02-11T09:28:47.535Z,8.00
2023-02-11T09:31:25.834Z,8.10
2023-02-11T09:33:55.254Z,8.10
2023-02-11T09:36:28.694Z,8.10
2023-02-11T09:38:57.477Z,8.10
2023-02-11T09:41:24.325Z,8.20
2023-02-11T09:43:57.242Z,8.20
2023-02-11T09:46:25.955Z,8.30
2023-02-11T09:48:55.508Z,8.30
2023-02-11T09:51:40.786Z,8.40
2023-02-11T09:54:27.329Z,8.40
2023-02-11T09:56:54.173Z,8.40
2023-02-11T09:59:21.625Z,8.50
2023-02-11T10:01:55.187Z,8.60
2023-02-11T10:04:46.066Z,8.70
2023-02-11T10:07:48.201Z,8.70
2023-02-11T10:10:38.134Z,8.80
2023-02-11T10:13:32.431Z,8.90
2023-02-11T10:16:04.609Z,8.90
2023-02-11T10:19:16.061Z,8.90
2023-02-11T10:22:04.429Z,9.00
2023-02-11T10:24:31.823Z,9.10
2023-02-11T10:26:59.129Z,9.10
2023-02-11T10:29:38.828Z,9.20
2023-02-11T10:32:37.298Z,9.30
2023-02-11T10:35:12.636Z,9.40
2023-02-11T10:37:39.448Z,9.40
2023-02-11T10:40:13.562Z,9.40
2023-02-11T10:42:43.783Z,9.50
2023-02-11T10:45:32.892Z,9.50
2023-02-11T10:48:01.733Z,9.50
2023-02-11T10:50:33.395Z,9.60
2023-02-11T10:53:12.447Z,9.60
2023-02-11T10:55:48.615Z,9.70
2023-02-11T10:58:25.329Z,9.70
2023-02-11T11:00:55.670Z,9.80
2023-02-11T11:03:25.413Z,9.90
2023-02-11T11:05:58.826Z,9.90
2023-02-11T11:08:48.847Z,10.00
2023-02-11T11:11:21.255Z,10.00
2023-02-11T11:13:54.236Z,10.00
2023-02-11T11:16:27.012Z,10.10
2023-02-11T11:19:23.741Z,10.20
2023-02-11T11:21:52.464Z,10.40
2023-02-11T11:24:39.996Z,10.50
2023-02-11T11:27:07.730Z,10.50
2023-02-11T11:29:40.405Z,10.60
2023-02-11T11:32:32.466Z,10.60
2023-02-11T11:35:02.673Z,10.70
2023-02-11T11:37:32.947Z,10.70
2023-02-11T11:40:10.594Z,10.70
2023-02-11T11:42:39.312Z,10.80
2023-02-11T11:45:22.951Z,10.90
2023-02-11T11:48:22.562Z,11.00
2023-02-11T11:50:56.249Z,11.10
2023-02-11T11:53:34.544Z,11.20
2023-02-11T11:56:09.125Z,11.20
2023-02-11T11:58:35.997Z,11.20
2023-02-11T12:01:40.478Z,11.20
2023-02-11T12:04:07.270Z,11.30
2023-02-11T12:06:43.166Z,11.30
2023-02-11T12:09:09.947Z,11.20
2023-02-11T12:11:58.616Z,11.20
2023-02-11T12:14:32.368Z,11.30
2023-02-11T12:17:28.385Z,11.20
2023-02-11T12:20:03.316Z,11.30
2023-02-11T12:22:44.273Z,11.20
2023-02-11T12:25:59.924Z,11.20
2023-02-11T12:28:26.813Z,11.10
2023-02-11T12:31:27.349Z,11.10
2023-02-11T12:34:21.106Z,11.10
2023-02-11T12:37:07.490Z,11.00
2023-02-11T12:39:40.757Z,11.00
2023-02-11T12:42:32.250Z,11.10
2023-02-11T12:45:11.446Z,11.10
2023-02-11T12:47:44.136Z,11.10
2023-02-11T12:50:40.496Z,11.20
2023-02-11T12:53:25.364Z,11.30
2023-02-11T12:55:59.264Z,11.50
2023-02-11T12:58:44.192Z,11.70
2023-02-11T13:01:21.031Z,11.90
2023-02-11T13:04:00.102Z,12.20
2023-02-11T13:06:40.046Z,12.40
2023-02-11T13:09:16.656Z,12.40
2023-02-11T13:11:51.919Z,12.50
2023-02-11T13:14:30.759Z,12.80
2023-02-11T13:16:58.588Z,13.10
2023-02-11T13:19:45.812Z,13.40
2023-02-11T13:22:30.532Z,13.50
2023-02-11T13:25:17.778Z,13.70
2023-02-11T13:27:58.755Z,13.70
2023-02-11T13:30:34.885Z,13.60
2023-02-11T13:33:03.183Z,13.50
2023-02-11T13:35:40.121Z,13.40
2023-02-11T13:38:17.864Z,13.30
2023-02-11T13:40:45.371Z,13.10
2023-02-11T13:43:28.693Z,13.00
2023-02-11T13:46:04.374Z,12.90
2023-02-11T13:48:34.908Z,12.90
2023-02-11T13:51:12.149Z,12.90
2023-02-11T13:53:53.440Z,12.90
2023-02-11T13:56:40.850Z,12.70
2023-02-11T13:59:26.349Z,12.60
2023-02-11T14:02:17.611Z,12.60
2023-02-11T14:05:37.624Z,12.50
2023-02-11T14:08:29.107Z,12.60
2023-02-11T14:11:01.576Z,12.50
2023-02-11T14:13:31.308Z,12.50
2023-02-11T14:16:22.630Z,12.50
2023-02-11T14:18:55.079Z,12.50
2023-02-11T14:21:28.884Z,12.50
2023-02-11T14:24:01.755Z,12.50
2023-02-11T14:26:44.631Z,12.50
2023-02-11T14:29:44.007Z,12.50
2023-02-11T14:32:31.066Z,12.40
2023-02-11T14:34:57.842Z,12.30
2023-02-11T14:37:58.608Z,12.30
2023-02-11T14:40:46.227Z,12.30
2023-02-11T14:43:19.771Z,12.30
2023-02-11T14:45:51.713Z,12.30
2023-02-11T14:48:20.444Z,12.30
2023-02-11T14:50:53.896Z,12.20
2023-02-11T14:53:23.882Z,12.20
2023-02-11T14:55:53.361Z,12.20
2023-02-11T14:58:31.571Z,12.10
2023-02-11T15:01:22.280Z,12.00
2023-02-11T15:03:49.904Z,11.90
2023-02-11T15:06:23.159Z,11.90
2023-02-11T15:08:58.081Z,11.90
2023-02-11T15:11:26.120Z,11.90
2023-02-11T15:13:55.470Z,11.80
2023-02-11T15:16:27.297Z,11.80
2023-02-11T15:19:02.580Z,11.90
2023-02-11T15:21:32.842Z,11.80
2023-02-11T15:24:06.330Z,11.70
2023-02-11T15:26:33.431Z,11.60
2023-02-11T15:29:00.427Z,11.60
2023-02-11T15:31:33.863Z,11.50
2023-02-11T15:34:08.420Z,11.50
2023-02-11T15:36:40.573Z,11.60
2023-02-11T15:39:33.549Z,11.60
2023-02-11T15:42:29.165Z,11.60
2023-02-11T15:45:16.325Z,11.50
2023-02-11T15:47:50.645Z,11.50
2023-02-11T15:50:32.476Z,11.40
2023-02-11T15:53:29.271Z,11.40
2023-02-11T15:56:17.957Z,11.30
2023-02-11T15:58:47.607Z,11.30
2023-02-11T16:01:15.335Z,11.30
2023-02-11T16:03:43.103Z,11.20
2023-02-11T16:06:34.617Z,11.20
2023-02-11T16:09:06.680Z,11.10
2023-02-11T16:11:47.225Z,11.00
2023-02-11T16:14:37.114Z,10.90
2023-02-11T16:17:12.113Z,10.90
2023-02-11T16:19:50.766Z,10.90
2023-02-11T16:22:26.123Z,10.90
2023-02-11T16:24:55.126Z,11.00
2023-02-11T16:27:25.644Z,11.00
2023-02-11T16:29:52.766Z,11.00
2023-02-11T16:32:22.977Z,11.00
2023-02-11T16:34:50.576Z,10.90
2023-02-11T16:37:17.472Z,10.90
2023-02-11T16:39:44.419Z,10.80
2023-02-11T16:42:12.158Z,10.80
2023-02-11T16:44:39.400Z,10.80
2023-02-11T16:47:14.880Z,10.70
2023-02-11T16:49:42.827Z,10.70
2023-02-11T16:52:14.412Z,10.60
2023-02-11T16:54:41.354Z,10.50
2023-02-11T16:57:34.644Z,10.50
2023-02-11T17:00:01.579Z,10.40
2023-02-11T17:02:31.165Z,10.30
2023-02-11T17:05:03.442Z,10.30
2023-02-11T17:07:31.016Z,10.30
2023-02-11T17:09:58.083Z,10.30
2023-02-11T17:12:25.433Z,10.20
2023-02-11T17:14:52.867Z,10.20
2023-02-11T17:17:19.838Z,10.20
2023-02-11T17:19:47.974Z,10.20
2023-02-11T17:22:14.778Z,10.20
2023-02-11T17:24:41.537Z,10.10
2023-02-11T17:27:10.896Z,10.10
2023-02-11T17:29:37.758Z,10.10
2023-02-11T17:32:04.631Z,10.10
2023-02-11T17:34:32.289Z,10.10
2023-02-11T17:37:00.252Z,10.10
2023-02-11T17:39:27.581Z,10.00
2023-02-11T17:41:54.369Z,10.00
2023-02-11T17:44:21.154Z,10.00
2023-02-11T17:46:48.269Z,9.90
2023-02-11T17:49:15.782Z,9.90
2023-02-11T17:51:43.188Z,9.90
2023-02-11T17:54:16.888Z,10.00
2023-02-11T17:56:44.210Z,10.00
2023-02-11T17:59:13.229Z,9.90
2023-02-11T18:01:41.885Z,9.90
2023-02-11T18:04:13.228Z,9.90
2023-02-11T18:06:40.129Z,9.80
2023-02-11T18:09:07.325Z,9.80
2023-02-11T18:11:36.108Z,9.80
2023-02-11T18:14:04.682Z,9.80
2023-02-11T18:16:31.638Z,9.70
2023-02-11T18:18:58.837Z,9.70
2023-02-11T18:21:26.005Z,9.70
2023-02-11T18:23:53.600Z,9.70
2023-02-11T18:26:21.552Z,9.70
2023-02-11T18:28:48.609Z,9.70
2023-02-11T18:31:15.631Z,9.70
2023-02-11T18:33:43.126Z,9.70
2023-02-11T18:36:13.653Z,9.70
2023-02-11T18:38:41.754Z,9.60
2023-02-11T18:41:08.764Z,9.60
2023-02-11T18:43:36.464Z,9.60
2023-02-11T18:46:08.203Z,9.60
2023-02-11T18:48:35.159Z,9.60
2023-02-11T18:51:02.061Z,9.60
2023-02-11T18:53:28.868Z,9.60
2023-02-11T18:55:55.862Z,9.60
2023-02-11T18:58:22.827Z,9.60
2023-02-11T19:00:50.441Z,9.60
2023-02-11T19:03:17.475Z,9.60
2023-02-11T19:05:47.705Z,9.50
2023-02-11T19:08:14.963Z,9.50
2023-02-11T19:10:43.291Z,9.50
2023-02-11T19:13:10.500Z,9.60
2023-02-11T19:15:44.492Z,9.50
2023-02-11T19:18:13.036Z,9.50
2023-02-11T19:20:44.164Z,9.50
2023-02-11T19:23:11.557Z,9.50
2023-02-11T19:25:45.614Z,9.50
2023-02-11T19:28:13.176Z,9.50
2023-02-11T19:30:40.302Z,9.50
2023-02-11T19:33:09.771Z,9.50
2023-02-11T19:35:36.977Z,9.50
2023-02-11T19:38:05.045Z,9.50
2023-02-11T19:40:32.469Z,9.50
2023-02-11T19:42:59.369Z,9.40
2023-02-11T19:45:26.931Z,9.40
2023-02-11T19:47:57.105Z,9.50
2023-02-11T19:50:24.361Z,9.50
2023-02-11T19:52:51.172Z,9.50
2023-02-11T19:55:18.270Z,9.60
2023-02-11T19:57:45.206Z,9.60
2023-02-11T20:00:12.697Z,9.60
2023-02-11T20:02:40.381Z,9.60
2023-02-11T20:05:07.628Z,9.60
2023-02-11T20:07:34.865Z,9.60
2023-02-11T20:10:01.797Z,9.60
2023-02-11T20:12:29.416Z,9.60
2023-02-11T20:14:56.504Z,9.50
2023-02-11T20:17:23.351Z,9.50
2023-02-11T20:19:50.292Z,9.50
2023-02-11T20:22:17.120Z,9.50
2023-02-11T20:24:43.959Z,9.40
2023-02-11T20:27:11.662Z,9.40
2023-02-11T20:29:42.661Z,9.40
2023-02-11T20:32:14.650Z,9.40
2023-02-11T20:34:45.443Z,9.30
2023-02-11T20:37:13.828Z,9.30
2023-02-11T20:39:41.937Z,9.30
2023-02-11T20:42:12.123Z,9.30
2023-02-11T20:44:39.323Z,9.30
2023-02-11T20:47:06.228Z,9.30
2023-02-11T20:49:33.119Z,9.40
2023-02-11T20:51:59.948Z,9.40
2023-02-11T20:54:27.020Z,9.40
2023-02-11T20:56:54.327Z,9.40
2023-02-11T20:59:21.755Z,9.40
2023-02-11T21:01:53.383Z,9.40
2023-02-11T21:04:23.083Z,9.30
2023-02-11T21:06:54.276Z,9.30
2023-02-11T21:09:25.132Z,9.30
2023-02-11T21:11:52.847Z,9.30
2023-02-11T21:14:22.309Z,9.40
2023-02-11T21:16:49.819Z,9.30
2023-02-11T21:19:17.189Z,9.30
2023-02-11T21:21:44.560Z,9.30
2023-02-11T21:24:12.061Z,9.30
2023-02-11T21:26:39.488Z,9.30
2023-02-11T21:29:07.982Z,9.30
2023-02-11T21:31:36.410Z,9.30
2023-02-11T21:34:03.582Z,9.30
2023-02-11T21:36:30.844Z,9.30
2023-02-11T21:38:57.919Z,9.30
2023-02-11T21:41:24.987Z,9.30
2023-02-11T21:43:52.598Z,9.30
2023-02-11T21:46:20.592Z,9.40
2023-02-11T21:48:47.792Z,9.40
2023-02-11T21:51:20.604Z,9.40
2023-02-11T21:53:47.422Z,9.40
2023-02-11T21:56:18.587Z,9.40
2023-02-11T21:58:46.420Z,9.40
2023-02-11T22:01:18.842Z,9.40
2023-02-11T22:03:46.512Z,9.40
2023-02-11T22:06:21.249Z,9.40
2023-02-11T22:08:49.445Z,9.40
2023-02-11T22:11:16.355Z,9.40
2023-02-11T22:13:43.250Z,9.40
2023-02-11T22:16:13.387Z,9.40
2023-02-11T22:18:40.286Z,9.40
2023-02-11T22:21:10.550Z,9.30
2023-02-11T22:23:38.199Z,9.30
2023-02-11T22:26:07.689Z,9.40
2023-02-11T22:28:35.427Z,9.40
2023-02-11T22:31:02.513Z,9.40
2023-02-11T22:33:29.315Z,9.30
2023-02-11T22:36:08.006Z,9.30
2023-02-11T22:38:35.389Z,9.30
2023-02-11T22:41:07.381Z,9.30
2023-02-11T22:43:34.358Z,9.30
2023-02-11T22:46:06.170Z,9.30
2023-02-11T22:48:34.276Z,9.30
2023-02-11T22:51:10.565Z,9.30
2023-02-11T22:53:38.466Z,9.30
2023-02-11T22:56:07.785Z,9.30
2023-02-11T22:58:36.835Z,9.30
2023-02-11T23:01:05.185Z,9.30
2023-02-11T23:03:33.556Z,9.30
2023-02-11T23:06:00.946Z,9.30
2023-02-11T23:08:29.127Z,9.30
2023-02-11T23:10:56.174Z,9.30
2023-02-11T23:13:23.526Z,9.30
2023-02-11T23:15:50.304Z,9.30
2023-02-11T23:18:17.059Z,9.30
2023-02-11T23:20:44.539Z,9.30
2023-02-11T23:23:11.548Z,9.30
2023-02-11T23:25:43.608Z,9.30
2023-02-11T23:28:11.880Z,9.30
2023-02-11T23:30:39.323Z,9.30
2023-02-11T23:33:06.213Z,9.30
2023-02-11T23:35:33.250Z,9.30
2023-02-11T23:38:00.015Z,9.30
2023-02-11T23:40:26.795Z,9.30
2023-02-11T23:42:53.688Z,9.30
2023-02-11T23:45:20.505Z,9.20
2023-02-11T23:47:47.692Z,9.30
2023-02-11T23:50:14.895Z,9.30
2023-02-11T23:52:41.717Z,9.30
2023-02-11T23:55:09.290Z,9.30
2023-02-11T23:57:36.063Z,9.30
